sensor_id;sensor_type;location;lat;lon;timestamp;P1;durP1;ratioP1;P2;durP2;ratioP2
12275;SDS011;6200;48.144;11.424;2022-11-15T00:02:21;0.30;;;0.30;;
12275;SDS011;6200;48.144;11.424;2022-11-15T00:04:47;0.40;;;0.40;;
12275;SDS011;6200;48.144;11.424;2022-11-15T00:07:12;0.30;;;0.30;;
12275;SDS011;6200;48.144;11.424;2022-11-15T00:09:38;0.30;;;0.30;;
12275;SDS011;6200;48.144;11.424;2022-11-15T00:12:03;0.30;;;0.30;;
12275;SDS011;6200;48.144;11.424;2022-11-15T00:14:29;0.40;;;0.40;;
12275;SDS011;6200;48.144;11.424;2022-11-15T00:16:55;0.30;;;0.30;;
12275;SDS011;6200;48.144;11.424;2022-11-15T00:19:21;0.30;;;0.30;;
12275;SDS011;6200;48.144;11.424;2022-11-15T00:21:46;0.30;;;0.30;;
12275;SDS011;6200;48.144;11.424;2022-11-15T00:24:12;0.40;;;0.40;;
12275;SDS011;6200;48.144;11.424;2022-11-15T00:26:38;0.30;;;0.30;;
12275;SDS011;6200;48.144;11.424;2022-11-15T00:29:03;0.40;;;0.40;;
12275;SDS011;6200;48.144;11.424;2022-11-15T00:31:29;0.43;;;0.43;;
12275;SDS011;6200;48.144;11.424;2022-11-15T00:33:54;0.30;;;0.30;;
12275;SDS011;6200;48.144;11.424;2022-11-15T00:36:20;0.23;;;0.23;;
12275;SDS011;6200;48.144;11.424;2022-11-15T00:38:45;0.40;;;0.40;;
12275;SDS011;6200;48.144;11.424;2022-11-15T00:41:11;0.30;;;0.30;;
12275;SDS011;6200;48.144;11.424;2022-11-15T00:43:36;0.20;;;0.20;;
12275;SDS011;6200;48.144;11.424;2022-11-15T00:46:04;0.30;;;0.30;;
12275;SDS011;6200;48.144;11.424;2022-11-15T00:48:30;0.37;;;0.37;;
12275;SDS011;6200;48.144;11.424;2022-11-15T00:50:56;0.30;;;0.30;;
12275;SDS011;6200;48.144;11.424;2022-11-15T00:53:22;0.20;;;0.20;;
12275;SDS011;6200;48.144;11.424;2022-11-15T00:55:48;0.30;;;0.30;;
12275;SDS011;6200;48.144;11.424;2022-11-15T00:58:13;0.30;;;0.30;;
12275;SDS011;6200;48.144;11.424;2022-11-15T01:00:39;0.40;;;0.40;;
12275;SDS011;6200;48.144;11.424;2022-11-15T01:03:04;0.30;;;0.30;;
12275;SDS011;6200;48.144;11.424;2022-11-15T01:05:30;0.20;;;0.20;;
12275;SDS011;6200;48.144;11.424;2022-11-15T01:07:55;0.23;;;0.23;;
12275;SDS011;6200;48.144;11.424;2022-11-15T01:10:24;0.40;;;0.40;;
12275;SDS011;6200;48.144;11.424;2022-11-15T01:12:50;0.30;;;0.30;;
12275;SDS011;6200;48.144;11.424;2022-11-15T01:15:16;0.30;;;0.30;;
12275;SDS011;6200;48.144;11.424;2022-11-15T01:17:42;0.50;;;0.50;;
12275;SDS011;6200;48.144;11.424;2022-11-15T01:20:07;0.30;;;0.30;;
12275;SDS011;6200;48.144;11.424;2022-11-15T01:22:33;0.20;;;0.20;;
12275;SDS011;6200;48.144;11.424;2022-11-15T01:24:59;0.30;;;0.30;;
12275;SDS011;6200;48.144;11.424;2022-11-15T01:27:24;0.30;;;0.30;;
12275;SDS011;6200;48.144;11.424;2022-11-15T01:29:50;0.40;;;0.40;;
12275;SDS011;6200;48.144;11.424;2022-11-15T01:32:16;0.40;;;0.40;;
12275;SDS011;6200;48.144;11.424;2022-11-15T01:34:41;0.40;;;0.40;;
12275;SDS011;6200;48.144;11.424;2022-11-15T01:37:07;0.30;;;0.30;;
12275;SDS011;6200;48.144;11.424;2022-11-15T01:39:32;0.43;;;0.43;;
12275;SDS011;6200;48.144;11.424;2022-11-15T01:41:58;0.50;;;0.50;;
12275;SDS011;6200;48.144;11.424;2022-11-15T01:47:08;0.40;;;0.40;;
12275;SDS011;6200;48.144;11.424;2022-11-15T01:49:38;0.30;;;0.30;;
12275;SDS011;6200;48.144;11.424;2022-11-15T01:52:09;0.30;;;0.30;;
12275;SDS011;6200;48.144;11.424;2022-11-15T01:54:38;0.20;;;0.20;;
12275;SDS011;6200;48.144;11.424;2022-11-15T01:57:04;0.30;;;0.30;;
12275;SDS011;6200;48.144;11.424;2022-11-15T01:59:34;0.30;;;0.30;;
12275;SDS011;6200;48.144;11.424;2022-11-15T02:02:01;0.30;;;0.30;;
12275;SDS011;6200;48.144;11.424;2022-11-15T02:04:34;0.23;;;0.23;;
12275;SDS011;6200;48.144;11.424;2022-11-15T02:07:03;0.40;;;0.40;;
12275;SDS011;6200;48.144;11.424;2022-11-15T02:09:30;0.50;;;0.50;;
12275;SDS011;6200;48.144;11.424;2022-11-15T02:11:55;0.30;;;0.30;;
12275;SDS011;6200;48.144;11.424;2022-11-15T02:14:22;0.30;;;0.30;;
12275;SDS011;6200;48.144;11.424;2022-11-15T02:16:57;0.40;;;0.40;;
12275;SDS011;6200;48.144;11.424;2022-11-15T02:19:52;0.30;;;0.30;;
12275;SDS011;6200;48.144;11.424;2022-11-15T02:25:39;0.43;;;0.43;;
12275;SDS011;6200;48.144;11.424;2022-11-15T02:33:54;0.30;;;0.30;;
12275;SDS011;6200;48.144;11.424;2022-11-15T02:39:35;0.40;;;0.40;;
12275;SDS011;6200;48.144;11.424;2022-11-15T02:42:11;0.30;;;0.30;;
12275;SDS011;6200;48.144;11.424;2022-11-15T02:45:12;0.40;;;0.40;;
12275;SDS011;6200;48.144;11.424;2022-11-15T02:47:43;0.40;;;0.40;;
12275;SDS011;6200;48.144;11.424;2022-11-15T02:50:11;0.30;;;0.30;;
12275;SDS011;6200;48.144;11.424;2022-11-15T02:52:40;0.33;;;0.33;;
12275;SDS011;6200;48.144;11.424;2022-11-15T02:55:29;0.30;;;0.30;;
12275;SDS011;6200;48.144;11.424;2022-11-15T03:00:25;0.40;;;0.40;;
12275;SDS011;6200;48.144;11.424;2022-11-15T03:06:20;0.40;;;0.40;;
12275;SDS011;6200;48.144;11.424;2022-11-15T03:11:59;0.50;;;0.50;;
12275;SDS011;6200;48.144;11.424;2022-11-15T03:14:36;0.40;;;0.40;;
12275;SDS011;6200;48.144;11.424;2022-11-15T03:17:14;0.40;;;0.40;;
12275;SDS011;6200;48.144;11.424;2022-11-15T03:19:49;0.40;;;0.40;;
12275;SDS011;6200;48.144;11.424;2022-11-15T03:22:19;0.50;;;0.50;;
12275;SDS011;6200;48.144;11.424;2022-11-15T03:24:47;0.37;;;0.37;;
12275;SDS011;6200;48.144;11.424;2022-11-15T03:27:19;0.40;;;0.40;;
12275;SDS011;6200;48.144;11.424;2022-11-15T03:29:50;0.30;;;0.30;;
12275;SDS011;6200;48.144;11.424;2022-11-15T03:32:24;0.43;;;0.43;;
12275;SDS011;6200;48.144;11.424;2022-11-15T03:34:57;0.30;;;0.30;;
12275;SDS011;6200;48.144;11.424;2022-11-15T03:37:31;0.40;;;0.40;;
12275;SDS011;6200;48.144;11.424;2022-11-15T03:40:05;0.30;;;0.30;;
12275;SDS011;6200;48.144;11.424;2022-11-15T03:42:38;0.40;;;0.40;;
12275;SDS011;6200;48.144;11.424;2022-11-15T03:45:21;0.30;;;0.30;;
12275;SDS011;6200;48.144;11.424;2022-11-15T03:47:58;0.30;;;0.30;;
12275;SDS011;6200;48.144;11.424;2022-11-15T03:50:32;0.40;;;0.40;;
12275;SDS011;6200;48.144;11.424;2022-11-15T03:52:59;0.40;;;0.40;;
12275;SDS011;6200;48.144;11.424;2022-11-15T03:55:25;0.40;;;0.40;;
12275;SDS011;6200;48.144;11.424;2022-11-15T03:57:51;0.40;;;0.40;;
12275;SDS011;6200;48.144;11.424;2022-11-15T04:00:19;0.30;;;0.30;;
12275;SDS011;6200;48.144;11.424;2022-11-15T04:02:45;0.50;;;0.50;;
12275;SDS011;6200;48.144;11.424;2022-11-15T04:05:10;0.40;;;0.40;;
12275;SDS011;6200;48.144;11.424;2022-11-15T04:07:36;0.47;;;0.47;;
12275;SDS011;6200;48.144;11.424;2022-11-15T04:10:02;0.47;;;0.47;;
12275;SDS011;6200;48.144;11.424;2022-11-15T04:12:28;0.43;;;0.43;;
12275;SDS011;6200;48.144;11.424;2022-11-15T04:14:59;0.30;;;0.30;;
12275;SDS011;6200;48.144;11.424;2022-11-15T04:17:32;0.40;;;0.40;;
12275;SDS011;6200;48.144;11.424;2022-11-15T04:19:57;0.40;;;0.40;;
12275;SDS011;6200;48.144;11.424;2022-11-15T04:22:41;0.30;;;0.30;;
12275;SDS011;6200;48.144;11.424;2022-11-15T04:25:26;0.40;;;0.40;;
12275;SDS011;6200;48.144;11.424;2022-11-15T04:27:51;0.40;;;0.40;;
12275;SDS011;6200;48.144;11.424;2022-11-15T04:30:16;0.30;;;0.30;;
12275;SDS011;6200;48.144;11.424;2022-11-15T04:32:42;0.40;;;0.40;;
12275;SDS011;6200;48.144;11.424;2022-11-15T04:35:08;0.50;;;0.50;;
12275;SDS011;6200;48.144;11.424;2022-11-15T04:37:33;0.40;;;0.40;;
12275;SDS011;6200;48.144;11.424;2022-11-15T04:39:59;0.40;;;0.40;;
12275;SDS011;6200;48.144;11.424;2022-11-15T04:42:25;0.40;;;0.40;;
12275;SDS011;6200;48.144;11.424;2022-11-15T04:44:51;0.40;;;0.40;;
12275;SDS011;6200;48.144;11.424;2022-11-15T04:47:16;0.40;;;0.40;;
12275;SDS011;6200;48.144;11.424;2022-11-15T04:49:42;0.50;;;0.50;;
12275;SDS011;6200;48.144;11.424;2022-11-15T04:52:08;0.40;;;0.40;;
12275;SDS011;6200;48.144;11.424;2022-11-15T04:54:34;0.30;;;0.30;;
12275;SDS011;6200;48.144;11.424;2022-11-15T04:57:00;0.40;;;0.40;;
12275;SDS011;6200;48.144;11.424;2022-11-15T04:59:25;0.40;;;0.40;;
12275;SDS011;6200;48.144;11.424;2022-11-15T05:01:51;0.33;;;0.33;;
12275;SDS011;6200;48.144;11.424;2022-11-15T05:04:16;0.40;;;0.40;;
12275;SDS011;6200;48.144;11.424;2022-11-15T05:06:48;0.40;;;0.40;;
12275;SDS011;6200;48.144;11.424;2022-11-15T05:09:15;0.33;;;0.33;;
12275;SDS011;6200;48.144;11.424;2022-11-15T05:11:41;0.40;;;0.40;;
12275;SDS011;6200;48.144;11.424;2022-11-15T05:14:07;0.50;;;0.50;;
12275;SDS011;6200;48.144;11.424;2022-11-15T05:16:32;0.33;;;0.33;;
12275;SDS011;6200;48.144;11.424;2022-11-15T05:18:58;0.43;;;0.43;;
12275;SDS011;6200;48.144;11.424;2022-11-15T05:21:23;0.40;;;0.40;;
12275;SDS011;6200;48.144;11.424;2022-11-15T05:23:49;0.40;;;0.40;;
12275;SDS011;6200;48.144;11.424;2022-11-15T05:26:15;0.50;;;0.50;;
12275;SDS011;6200;48.144;11.424;2022-11-15T05:28:42;0.40;;;0.40;;
12275;SDS011;6200;48.144;11.424;2022-11-15T05:31:09;0.40;;;0.40;;
12275;SDS011;6200;48.144;11.424;2022-11-15T05:33:35;0.50;;;0.50;;
12275;SDS011;6200;48.144;11.424;2022-11-15T05:38:51;0.47;;;0.47;;
12275;SDS011;6200;48.144;11.424;2022-11-15T05:41:17;0.40;;;0.40;;
12275;SDS011;6200;48.144;11.424;2022-11-15T05:43:46;0.50;;;0.50;;
12275;SDS011;6200;48.144;11.424;2022-11-15T05:46:14;0.50;;;0.50;;
12275;SDS011;6200;48.144;11.424;2022-11-15T05:48:40;0.50;;;0.50;;
12275;SDS011;6200;48.144;11.424;2022-11-15T05:51:09;0.43;;;0.43;;
12275;SDS011;6200;48.144;11.424;2022-11-15T05:53:37;0.47;;;0.47;;
12275;SDS011;6200;48.144;11.424;2022-11-15T05:56:03;0.33;;;0.33;;
12275;SDS011;6200;48.144;11.424;2022-11-15T05:58:31;0.40;;;0.40;;
12275;SDS011;6200;48.144;11.424;2022-11-15T06:00:57;0.40;;;0.40;;
12275;SDS011;6200;48.144;11.424;2022-11-15T06:03:23;0.40;;;0.40;;
12275;SDS011;6200;48.144;11.424;2022-11-15T06:05:49;0.40;;;0.40;;
12275;SDS011;6200;48.144;11.424;2022-11-15T06:08:14;0.37;;;0.37;;
12275;SDS011;6200;48.144;11.424;2022-11-15T06:10:40;0.40;;;0.40;;
12275;SDS011;6200;48.144;11.424;2022-11-15T06:13:05;0.40;;;0.40;;
12275;SDS011;6200;48.144;11.424;2022-11-15T06:15:34;0.40;;;0.40;;
12275;SDS011;6200;48.144;11.424;2022-11-15T06:17:59;0.40;;;0.40;;
12275;SDS011;6200;48.144;11.424;2022-11-15T06:20:26;0.40;;;0.40;;
12275;SDS011;6200;48.144;11.424;2022-11-15T06:23:03;0.40;;;0.40;;
12275;SDS011;6200;48.144;11.424;2022-11-15T06:25:30;0.40;;;0.40;;
12275;SDS011;6200;48.144;11.424;2022-11-15T06:27:56;0.40;;;0.40;;
12275;SDS011;6200;48.144;11.424;2022-11-15T06:30:22;0.50;;;0.50;;
12275;SDS011;6200;48.144;11.424;2022-11-15T06:32:49;0.40;;;0.40;;
12275;SDS011;6200;48.144;11.424;2022-11-15T06:35:15;0.43;;;0.43;;
12275;SDS011;6200;48.144;11.424;2022-11-15T06:37:41;0.50;;;0.50;;
12275;SDS011;6200;48.144;11.424;2022-11-15T06:40:08;0.40;;;0.40;;
12275;SDS011;6200;48.144;11.424;2022-11-15T06:42:34;0.40;;;0.40;;
12275;SDS011;6200;48.144;11.424;2022-11-15T06:45:00;0.50;;;0.50;;
12275;SDS011;6200;48.144;11.424;2022-11-15T06:47:26;0.50;;;0.50;;
12275;SDS011;6200;48.144;11.424;2022-11-15T06:49:51;0.40;;;0.40;;
12275;SDS011;6200;48.144;11.424;2022-11-15T06:52:17;0.40;;;0.40;;
12275;SDS011;6200;48.144;11.424;2022-11-15T06:54:44;0.50;;;0.50;;
12275;SDS011;6200;48.144;11.424;2022-11-15T06:57:10;0.40;;;0.40;;
12275;SDS011;6200;48.144;11.424;2022-11-15T06:59:35;0.40;;;0.40;;
12275;SDS011;6200;48.144;11.424;2022-11-15T07:02:01;0.30;;;0.30;;
12275;SDS011;6200;48.144;11.424;2022-11-15T07:04:27;0.30;;;0.30;;
12275;SDS011;6200;48.144;11.424;2022-11-15T07:06:52;0.47;;;0.47;;
12275;SDS011;6200;48.144;11.424;2022-11-15T07:09:18;0.40;;;0.40;;
12275;SDS011;6200;48.144;11.424;2022-11-15T07:11:44;0.40;;;0.40;;
12275;SDS011;6200;48.144;11.424;2022-11-15T07:14:09;0.40;;;0.40;;
12275;SDS011;6200;48.144;11.424;2022-11-15T07:16:35;0.40;;;0.40;;
12275;SDS011;6200;48.144;11.424;2022-11-15T07:19:01;0.30;;;0.30;;
12275;SDS011;6200;48.144;11.424;2022-11-15T07:21:27;0.30;;;0.30;;
12275;SDS011;6200;48.144;11.424;2022-11-15T07:23:52;0.40;;;0.40;;
12275;SDS011;6200;48.144;11.424;2022-11-15T07:26:18;0.50;;;0.50;;
12275;SDS011;6200;48.144;11.424;2022-11-15T07:28:43;0.40;;;0.40;;
12275;SDS011;6200;48.144;11.424;2022-11-15T07:31:09;0.40;;;0.40;;
12275;SDS011;6200;48.144;11.424;2022-11-15T07:33:35;0.30;;;0.30;;
12275;SDS011;6200;48.144;11.424;2022-11-15T07:36:01;0.40;;;0.40;;
12275;SDS011;6200;48.144;11.424;2022-11-15T07:38:28;0.30;;;0.30;;
12275;SDS011;6200;48.144;11.424;2022-11-15T07:40:58;0.30;;;0.30;;
12275;SDS011;6200;48.144;11.424;2022-11-15T07:43:26;0.40;;;0.40;;
12275;SDS011;6200;48.144;11.424;2022-11-15T07:45:57;0.40;;;0.40;;
12275;SDS011;6200;48.144;11.424;2022-11-15T07:48:23;0.43;;;0.43;;
12275;SDS011;6200;48.144;11.424;2022-11-15T07:50:48;0.40;;;0.40;;
12275;SDS011;6200;48.144;11.424;2022-11-15T07:53:14;0.40;;;0.40;;
12275;SDS011;6200;48.144;11.424;2022-11-15T07:55:41;0.43;;;0.43;;
12275;SDS011;6200;48.144;11.424;2022-11-15T07:58:08;0.40;;;0.40;;
12275;SDS011;6200;48.144;11.424;2022-11-15T08:00:35;0.30;;;0.30;;
12275;SDS011;6200;48.144;11.424;2022-11-15T08:03:05;0.20;;;0.20;;
12275;SDS011;6200;48.144;11.424;2022-11-15T08:05:32;0.20;;;0.20;;
12275;SDS011;6200;48.144;11.424;2022-11-15T08:07:59;0.20;;;0.20;;
12275;SDS011;6200;48.144;11.424;2022-11-15T08:10:25;0.30;;;0.30;;
12275;SDS011;6200;48.144;11.424;2022-11-15T08:13:01;0.30;;;0.30;;
12275;SDS011;6200;48.144;11.424;2022-11-15T08:15:31;0.30;;;0.30;;
12275;SDS011;6200;48.144;11.424;2022-11-15T08:17:58;0.30;;;0.30;;
12275;SDS011;6200;48.144;11.424;2022-11-15T08:20:26;0.30;;;0.30;;
12275;SDS011;6200;48.144;11.424;2022-11-15T08:22:56;0.30;;;0.30;;
12275;SDS011;6200;48.144;11.424;2022-11-15T08:25:23;0.30;;;0.30;;
12275;SDS011;6200;48.144;11.424;2022-11-15T08:27:54;0.20;;;0.20;;
12275;SDS011;6200;48.144;11.424;2022-11-15T08:30:21;0.20;;;0.20;;
12275;SDS011;6200;48.144;11.424;2022-11-15T08:32:47;0.27;;;0.27;;
12275;SDS011;6200;48.144;11.424;2022-11-15T08:35:14;0.20;;;0.20;;
12275;SDS011;6200;48.144;11.424;2022-11-15T08:37:39;0.20;;;0.20;;
12275;SDS011;6200;48.144;11.424;2022-11-15T08:40:05;0.20;;;0.20;;
12275;SDS011;6200;48.144;11.424;2022-11-15T08:42:31;0.23;;;0.23;;
12275;SDS011;6200;48.144;11.424;2022-11-15T08:44:57;0.30;;;0.30;;
12275;SDS011;6200;48.144;11.424;2022-11-15T08:47:22;0.20;;;0.20;;
12275;SDS011;6200;48.144;11.424;2022-11-15T08:49:48;0.20;;;0.20;;
12275;SDS011;6200;48.144;11.424;2022-11-15T08:52:14;0.20;;;0.20;;
12275;SDS011;6200;48.144;11.424;2022-11-15T08:54:40;0.30;;;0.30;;
12275;SDS011;6200;48.144;11.424;2022-11-15T08:57:05;0.20;;;0.20;;
12275;SDS011;6200;48.144;11.424;2022-11-15T08:59:31;0.20;;;0.20;;
12275;SDS011;6200;48.144;11.424;2022-11-15T09:01:56;0.23;;;0.23;;
12275;SDS011;6200;48.144;11.424;2022-11-15T09:04:22;0.20;;;0.20;;
12275;SDS011;6200;48.144;11.424;2022-11-15T09:06:48;0.20;;;0.20;;
12275;SDS011;6200;48.144;11.424;2022-11-15T09:09:13;0.20;;;0.20;;
12275;SDS011;6200;48.144;11.424;2022-11-15T09:11:39;0.23;;;0.23;;
12275;SDS011;6200;48.144;11.424;2022-11-15T09:14:05;0.20;;;0.20;;
12275;SDS011;6200;48.144;11.424;2022-11-15T09:16:30;0.20;;;0.20;;
12275;SDS011;6200;48.144;11.424;2022-11-15T09:18:56;0.20;;;0.20;;
12275;SDS011;6200;48.144;11.424;2022-11-15T09:21:22;0.20;;;0.20;;
12275;SDS011;6200;48.144;11.424;2022-11-15T09:23:49;0.20;;;0.20;;
12275;SDS011;6200;48.144;11.424;2022-11-15T09:26:16;0.20;;;0.13;;
12275;SDS011;6200;48.144;11.424;2022-11-15T09:28:42;0.20;;;0.20;;
12275;SDS011;6200;48.144;11.424;2022-11-15T09:31:08;0.20;;;0.20;;
12275;SDS011;6200;48.144;11.424;2022-11-15T09:33:33;0.20;;;0.20;;
12275;SDS011;6200;48.144;11.424;2022-11-15T09:36:00;0.20;;;0.20;;
12275;SDS011;6200;48.144;11.424;2022-11-15T09:38:27;0.20;;;0.20;;
12275;SDS011;6200;48.144;11.424;2022-11-15T09:40:57;0.20;;;0.20;;
12275;SDS011;6200;48.144;11.424;2022-11-15T09:46:18;0.20;;;0.10;;
12275;SDS011;6200;48.144;11.424;2022-11-15T09:48:54;0.20;;;0.20;;
12275;SDS011;6200;48.144;11.424;2022-11-15T09:51:27;0.20;;;0.20;;
12275;SDS011;6200;48.144;11.424;2022-11-15T09:56:35;0.20;;;0.20;;
12275;SDS011;6200;48.144;11.424;2022-11-15T10:04:33;0.20;;;0.20;;
12275;SDS011;6200;48.144;11.424;2022-11-15T10:07:06;0.20;;;0.20;;
12275;SDS011;6200;48.144;11.424;2022-11-15T10:09:47;0.20;;;0.20;;
12275;SDS011;6200;48.144;11.424;2022-11-15T10:12:17;0.20;;;0.20;;
12275;SDS011;6200;48.144;11.424;2022-11-15T10:14:43;0.20;;;0.20;;
12275;SDS011;6200;48.144;11.424;2022-11-15T10:22:34;0.20;;;0.20;;
12275;SDS011;6200;48.144;11.424;2022-11-15T10:27:33;0.20;;;0.20;;
12275;SDS011;6200;48.144;11.424;2022-11-15T10:29:59;0.20;;;0.20;;
12275;SDS011;6200;48.144;11.424;2022-11-15T10:32:25;0.20;;;0.20;;
12275;SDS011;6200;48.144;11.424;2022-11-15T10:34:51;0.20;;;0.20;;
12275;SDS011;6200;48.144;11.424;2022-11-15T10:37:29;0.20;;;0.20;;
12275;SDS011;6200;48.144;11.424;2022-11-15T10:40:03;0.20;;;0.20;;
12275;SDS011;6200;48.144;11.424;2022-11-15T10:42:30;0.20;;;0.20;;
12275;SDS011;6200;48.144;11.424;2022-11-15T10:44:56;0.20;;;0.20;;
12275;SDS011;6200;48.144;11.424;2022-11-15T10:47:23;0.20;;;0.20;;
12275;SDS011;6200;48.144;11.424;2022-11-15T10:49:53;0.20;;;0.20;;
12275;SDS011;6200;48.144;11.424;2022-11-15T10:52:20;0.20;;;0.20;;
12275;SDS011;6200;48.144;11.424;2022-11-15T11:00:27;0.20;;;0.10;;
12275;SDS011;6200;48.144;11.424;2022-11-15T11:08:01;0.20;;;0.20;;
12275;SDS011;6200;48.144;11.424;2022-11-15T11:10:36;0.20;;;0.20;;
12275;SDS011;6200;48.144;11.424;2022-11-15T11:13:14;0.20;;;0.20;;
12275;SDS011;6200;48.144;11.424;2022-11-15T11:15:48;0.20;;;0.20;;
12275;SDS011;6200;48.144;11.424;2022-11-15T11:18:32;0.20;;;0.20;;
12275;SDS011;6200;48.144;11.424;2022-11-15T11:21:05;0.20;;;0.20;;
12275;SDS011;6200;48.144;11.424;2022-11-15T11:23:43;0.20;;;0.20;;
12275;SDS011;6200;48.144;11.424;2022-11-15T11:28:42;0.20;;;0.20;;
12275;SDS011;6200;48.144;11.424;2022-11-15T11:34:00;0.20;;;0.20;;
12275;SDS011;6200;48.144;11.424;2022-11-15T11:36:41;0.20;;;0.20;;
12275;SDS011;6200;48.144;11.424;2022-11-15T11:39:32;0.20;;;0.20;;
12275;SDS011;6200;48.144;11.424;2022-11-15T11:42:19;0.20;;;0.20;;
12275;SDS011;6200;48.144;11.424;2022-11-15T11:47:56;0.20;;;0.20;;
12275;SDS011;6200;48.144;11.424;2022-11-15T11:50:43;0.20;;;0.20;;
12275;SDS011;6200;48.144;11.424;2022-11-15T11:55:57;0.20;;;0.10;;
12275;SDS011;6200;48.144;11.424;2022-11-15T12:01:16;0.20;;;0.20;;
12275;SDS011;6200;48.144;11.424;2022-11-15T12:03:49;0.20;;;0.20;;
12275;SDS011;6200;48.144;11.424;2022-11-15T12:06:36;0.20;;;0.20;;
12275;SDS011;6200;48.144;11.424;2022-11-15T12:14:56;0.20;;;0.20;;
12275;SDS011;6200;48.144;11.424;2022-11-15T12:17:28;0.20;;;0.20;;
12275;SDS011;6200;48.144;11.424;2022-11-15T12:20:14;0.20;;;0.20;;
12275;SDS011;6200;48.144;11.424;2022-11-15T12:33:39;0.20;;;0.20;;
12275;SDS011;6200;48.144;11.424;2022-11-15T12:41:28;0.20;;;0.20;;
12275;SDS011;6200;48.144;11.424;2022-11-15T12:43:58;0.20;;;0.20;;
12275;SDS011;6200;48.144;11.424;2022-11-15T12:57:22;0.20;;;0.20;;
12275;SDS011;6200;48.144;11.424;2022-11-15T12:59:55;0.20;;;0.20;;
12275;SDS011;6200;48.144;11.424;2022-11-15T13:17:38;0.20;;;0.20;;
12275;SDS011;6200;48.144;11.424;2022-11-15T13:22:38;0.20;;;0.20;;
12275;SDS011;6200;48.144;11.424;2022-11-15T13:30:48;0.20;;;0.20;;
12275;SDS011;6200;48.144;11.424;2022-11-15T13:35:59;0.20;;;0.20;;
12275;SDS011;6200;48.144;11.424;2022-11-15T13:38:31;0.20;;;0.20;;
12275;SDS011;6200;48.144;11.424;2022-11-15T13:40:59;0.20;;;0.20;;
12275;SDS011;6200;48.144;11.424;2022-11-15T13:43:36;0.20;;;0.20;;
12275;SDS011;6200;48.144;11.424;2022-11-15T13:48:43;0.20;;;0.20;;
12275;SDS011;6200;48.144;11.424;2022-11-15T13:51:13;0.20;;;0.20;;
12275;SDS011;6200;48.144;11.424;2022-11-15T13:53:40;0.20;;;0.20;;
12275;SDS011;6200;48.144;11.424;2022-11-15T13:56:08;0.20;;;0.20;;
12275;SDS011;6200;48.144;11.424;2022-11-15T13:58:36;0.20;;;0.20;;
12275;SDS011;6200;48.144;11.424;2022-11-15T14:01:04;0.20;;;0.20;;
12275;SDS011;6200;48.144;11.424;2022-11-15T14:03:34;0.20;;;0.10;;
12275;SDS011;6200;48.144;11.424;2022-11-15T14:06:10;0.20;;;0.20;;
12275;SDS011;6200;48.144;11.424;2022-11-15T14:08:41;0.20;;;0.20;;
12275;SDS011;6200;48.144;11.424;2022-11-15T14:11:22;0.20;;;0.20;;
12275;SDS011;6200;48.144;11.424;2022-11-15T14:16:43;0.20;;;0.20;;
12275;SDS011;6200;48.144;11.424;2022-11-15T14:19:11;0.20;;;0.20;;
12275;SDS011;6200;48.144;11.424;2022-11-15T14:27:40;0.20;;;0.20;;
12275;SDS011;6200;48.144;11.424;2022-11-15T14:30:12;0.20;;;0.20;;
12275;SDS011;6200;48.144;11.424;2022-11-15T14:32:49;0.20;;;0.20;;
12275;SDS011;6200;48.144;11.424;2022-11-15T14:35:16;0.20;;;0.20;;
12275;SDS011;6200;48.144;11.424;2022-11-15T14:37:44;0.20;;;0.20;;
12275;SDS011;6200;48.144;11.424;2022-11-15T14:40:12;0.20;;;0.20;;
12275;SDS011;6200;48.144;11.424;2022-11-15T14:42:39;0.20;;;0.20;;
12275;SDS011;6200;48.144;11.424;2022-11-15T14:47:41;0.20;;;0.20;;
12275;SDS011;6200;48.144;11.424;2022-11-15T14:50:10;0.20;;;0.20;;
12275;SDS011;6200;48.144;11.424;2022-11-15T14:52:37;0.20;;;0.20;;
12275;SDS011;6200;48.144;11.424;2022-11-15T14:55:03;0.20;;;0.20;;
12275;SDS011;6200;48.144;11.424;2022-11-15T14:57:36;0.20;;;0.20;;
12275;SDS011;6200;48.144;11.424;2022-11-15T15:00:02;0.20;;;0.20;;
12275;SDS011;6200;48.144;11.424;2022-11-15T15:02:30;0.20;;;0.20;;
12275;SDS011;6200;48.144;11.424;2022-11-15T15:04:56;0.20;;;0.10;;
12275;SDS011;6200;48.144;11.424;2022-11-15T15:07:25;0.20;;;0.20;;
12275;SDS011;6200;48.144;11.424;2022-11-15T15:09:51;0.20;;;0.20;;
12275;SDS011;6200;48.144;11.424;2022-11-15T15:12:17;0.20;;;0.20;;
12275;SDS011;6200;48.144;11.424;2022-11-15T15:14:45;0.20;;;0.20;;
12275;SDS011;6200;48.144;11.424;2022-11-15T15:17:11;0.20;;;0.20;;
12275;SDS011;6200;48.144;11.424;2022-11-15T15:19:37;0.20;;;0.20;;
12275;SDS011;6200;48.144;11.424;2022-11-15T15:22:03;0.20;;;0.20;;
12275;SDS011;6200;48.144;11.424;2022-11-15T15:24:29;0.20;;;0.20;;
12275;SDS011;6200;48.144;11.424;2022-11-15T15:26:55;0.20;;;0.20;;
12275;SDS011;6200;48.144;11.424;2022-11-15T15:29:20;0.20;;;0.20;;
12275;SDS011;6200;48.144;11.424;2022-11-15T15:31:46;0.20;;;0.20;;
12275;SDS011;6200;48.144;11.424;2022-11-15T15:34:11;0.20;;;0.20;;
12275;SDS011;6200;48.144;11.424;2022-11-15T15:36:37;0.20;;;0.20;;
12275;SDS011;6200;48.144;11.424;2022-11-15T15:39:02;0.20;;;0.20;;
12275;SDS011;6200;48.144;11.424;2022-11-15T15:41:28;0.20;;;0.20;;
12275;SDS011;6200;48.144;11.424;2022-11-15T15:43:53;0.20;;;0.20;;
12275;SDS011;6200;48.144;11.424;2022-11-15T15:46:19;0.20;;;0.20;;
12275;SDS011;6200;48.144;11.424;2022-11-15T15:48:45;0.20;;;0.20;;
12275;SDS011;6200;48.144;11.424;2022-11-15T15:51:11;0.20;;;0.20;;
12275;SDS011;6200;48.144;11.424;2022-11-15T15:53:37;0.20;;;0.20;;
12275;SDS011;6200;48.144;11.424;2022-11-15T15:56:05;0.20;;;0.20;;
12275;SDS011;6200;48.144;11.424;2022-11-15T15:58:33;0.20;;;0.20;;
12275;SDS011;6200;48.144;11.424;2022-11-15T16:00:59;0.20;;;0.20;;
12275;SDS011;6200;48.144;11.424;2022-11-15T16:03:24;0.20;;;0.20;;
12275;SDS011;6200;48.144;11.424;2022-11-15T16:05:50;0.20;;;0.20;;
12275;SDS011;6200;48.144;11.424;2022-11-15T16:08:22;0.20;;;0.20;;
12275;SDS011;6200;48.144;11.424;2022-11-15T16:10:49;0.20;;;0.20;;
12275;SDS011;6200;48.144;11.424;2022-11-15T16:13:15;0.20;;;0.20;;
12275;SDS011;6200;48.144;11.424;2022-11-15T16:15:41;0.20;;;0.20;;
12275;SDS011;6200;48.144;11.424;2022-11-15T16:18:17;0.20;;;0.10;;
12275;SDS011;6200;48.144;11.424;2022-11-15T16:20:43;0.20;;;0.20;;
12275;SDS011;6200;48.144;11.424;2022-11-15T16:23:12;0.20;;;0.20;;
12275;SDS011;6200;48.144;11.424;2022-11-15T16:25:44;0.20;;;0.20;;
12275;SDS011;6200;48.144;11.424;2022-11-15T16:28:20;0.20;;;0.20;;
12275;SDS011;6200;48.144;11.424;2022-11-15T16:30:47;0.20;;;0.20;;
12275;SDS011;6200;48.144;11.424;2022-11-15T16:33:13;0.20;;;0.20;;
12275;SDS011;6200;48.144;11.424;2022-11-15T16:35:39;0.20;;;0.20;;
12275;SDS011;6200;48.144;11.424;2022-11-15T16:38:05;0.20;;;0.20;;
12275;SDS011;6200;48.144;11.424;2022-11-15T16:40:33;0.20;;;0.20;;
12275;SDS011;6200;48.144;11.424;2022-11-15T16:43:00;0.30;;;0.30;;
12275;SDS011;6200;48.144;11.424;2022-11-15T16:45:27;0.20;;;0.20;;
12275;SDS011;6200;48.144;11.424;2022-11-15T16:47:53;0.20;;;0.10;;
12275;SDS011;6200;48.144;11.424;2022-11-15T16:50:24;0.20;;;0.17;;
12275;SDS011;6200;48.144;11.424;2022-11-15T16:52:51;0.20;;;0.20;;
12275;SDS011;6200;48.144;11.424;2022-11-15T16:55:21;0.20;;;0.20;;
12275;SDS011;6200;48.144;11.424;2022-11-15T16:57:48;0.20;;;0.20;;
12275;SDS011;6200;48.144;11.424;2022-11-15T17:00:15;0.20;;;0.13;;
12275;SDS011;6200;48.144;11.424;2022-11-15T17:02:42;0.20;;;0.20;;
12275;SDS011;6200;48.144;11.424;2022-11-15T17:05:09;0.20;;;0.20;;
12275;SDS011;6200;48.144;11.424;2022-11-15T17:07:35;0.20;;;0.20;;
12275;SDS011;6200;48.144;11.424;2022-11-15T17:10:01;0.20;;;0.20;;
12275;SDS011;6200;48.144;11.424;2022-11-15T17:12:26;0.20;;;0.20;;
12275;SDS011;6200;48.144;11.424;2022-11-15T17:14:52;0.20;;;0.20;;
12275;SDS011;6200;48.144;11.424;2022-11-15T17:17:18;0.20;;;0.20;;
12275;SDS011;6200;48.144;11.424;2022-11-15T17:19:43;0.20;;;0.20;;